createdAt,value
2023-05-05T00:01:02.434Z,10.32
2023-05-05T00:03:29.873Z,11.38
2023-05-05T00:05:57.470Z,8.90
2023-05-05T00:08:24.691Z,9.93
2023-05-05T00:10:53.699Z,10.00
2023-05-05T00:13:21.803Z,9.60
2023-05-05T00:15:51.041Z,10.55
2023-05-05T00:18:18.534Z,10.85
2023-05-05T00:20:47.200Z,13.48
2023-05-05T00:23:15.856Z,9.00
2023-05-05T00:25:42.976Z,10.63
2023-05-05T00:28:10.373Z,14.18
2023-05-05T00:30:39.698Z,10.15
2023-05-05T00:33:06.847Z,13.65
2023-05-05T00:35:34.400Z,11.23
2023-05-05T00:38:01.380Z,14.20
2023-05-05T00:40:28.638Z,11.53
2023-05-05T00:42:55.620Z,13.18
2023-05-05T00:45:22.676Z,14.27
2023-05-05T00:47:52.846Z,9.07
2023-05-05T00:50:31.102Z,10.00
2023-05-05T00:53:04.057Z,9.23
2023-05-05T00:55:32.211Z,10.75
2023-05-05T00:58:00.646Z,11.50
2023-05-05T01:00:28.642Z,12.70
2023-05-05T01:02:56.135Z,10.67
2023-05-05T01:05:27.050Z,10.50
2023-05-05T01:08:18.165Z,11.53
2023-05-05T01:11:03.284Z,12.60
2023-05-05T01:13:42.914Z,11.32
2023-05-05T01:16:32.402Z,13.97
2023-05-05T01:19:48.660Z,12.97
2023-05-05T01:22:20.796Z,14.57
2023-05-05T01:25:14.784Z,11.10
2023-05-05T01:28:06.479Z,11.57
2023-05-05T01:31:00.564Z,9.00
2023-05-05T01:33:36.960Z,11.70
2023-05-05T01:36:12.294Z,8.43
2023-05-05T01:38:42.655Z,10.03
2023-05-05T01:41:17.764Z,8.33
2023-05-05T01:43:49.862Z,8.40
2023-05-05T01:46:18.313Z,12.20
2023-05-05T01:48:47.024Z,8.87
2023-05-05T01:51:16.203Z,11.93
2023-05-05T01:53:43.871Z,9.73
2023-05-05T01:56:13.116Z,6.43
2023-05-05T01:58:44.346Z,6.27
2023-05-05T02:01:12.988Z,10.83
2023-05-05T02:03:42.055Z,6.40
2023-05-05T02:06:10.445Z,7.70
2023-05-05T02:08:39.470Z,9.77
2023-05-05T02:11:09.957Z,9.30
2023-05-05T02:13:37.835Z,9.50
2023-05-05T02:16:05.957Z,10.47
2023-05-05T02:18:35.908Z,9.73
2023-05-05T02:21:03.870Z,13.40
2023-05-05T02:23:31.800Z,11.57
2023-05-05T02:26:07.405Z,12.57
2023-05-05T02:29:07.517Z,15.13
2023-05-05T02:31:49.451Z,13.30
2023-05-05T02:34:27.763Z,11.00
2023-05-05T02:36:58.603Z,13.97
2023-05-05T02:39:32.311Z,16.70
2023-05-05T02:42:05.228Z,19.60
2023-05-05T02:44:33.694Z,14.93
2023-05-05T02:47:04.963Z,14.20
2023-05-05T02:49:31.973Z,17.07
2023-05-05T02:51:59.097Z,19.33
2023-05-05T02:54:27.298Z,17.08
2023-05-05T02:56:56.501Z,17.48
2023-05-05T02:59:41.850Z,16.65
2023-05-05T03:02:28.048Z,14.20
2023-05-05T03:05:08.973Z,18.38
2023-05-05T03:08:03.583Z,18.10
2023-05-05T03:10:38.751Z,19.35
2023-05-05T03:13:10.290Z,15.85
2023-05-05T03:15:51.800Z,16.38
2023-05-05T03:18:22.824Z,18.38
2023-05-05T03:20:50.431Z,16.93
2023-05-05T03:23:20.951Z,16.75
2023-05-05T03:25:49.964Z,14.05
2023-05-05T03:28:18.586Z,16.85
2023-05-05T03:30:45.876Z,16.05
2023-05-05T03:33:12.989Z,13.18
2023-05-05T03:35:39.899Z,15.07
2023-05-05T03:38:06.856Z,16.10
2023-05-05T03:40:43.596Z,12.65
2023-05-05T03:43:11.494Z,18.52
2023-05-05T03:45:38.723Z,13.45
2023-05-05T03:48:06.561Z,14.23
2023-05-05T03:50:33.543Z,16.83
2023-05-05T03:53:00.526Z,15.90
2023-05-05T03:55:27.474Z,23.52
2023-05-05T03:57:54.472Z,18.27
2023-05-05T04:00:22.050Z,19.45
2023-05-05T04:02:49.100Z,17.53
2023-05-05T04:05:16.139Z,18.50
2023-05-05T04:07:43.312Z,20.40
2023-05-05T04:10:10.615Z,21.50
2023-05-05T04:12:37.707Z,18.90
2023-05-05T04:15:05.602Z,21.73
2023-05-05T04:17:32.621Z,17.67
2023-05-05T04:19:59.674Z,19.80
2023-05-05T04:22:26.826Z,20.70
2023-05-05T04:24:54.058Z,19.00
2023-05-05T04:27:21.021Z,19.65
2023-05-05T04:29:48.065Z,20.08
2023-05-05T04:32:15.052Z,25.63
2023-05-05T04:34:42.089Z,25.90
2023-05-05T04:37:09.258Z,21.30
2023-05-05T04:39:36.255Z,26.45
2023-05-05T04:42:03.443Z,18.33
2023-05-05T04:44:30.607Z,18.40
2023-05-05T04:46:58.127Z,22.38
2023-05-05T04:49:25.088Z,24.73
2023-05-05T04:51:52.059Z,20.13
2023-05-05T04:54:19.036Z,15.18
2023-05-05T04:56:46.042Z,16.67
2023-05-05T04:59:12.992Z,15.63
2023-05-05T05:01:40.140Z,11.53
2023-05-05T05:04:08.138Z,14.77
2023-05-05T05:06:35.188Z,19.77
2023-05-05T05:09:02.367Z,19.90
2023-05-05T05:11:29.399Z,22.47
2023-05-05T05:13:56.385Z,22.60
2023-05-05T05:16:25.341Z,24.27
2023-05-05T05:18:52.417Z,23.52
2023-05-05T05:21:19.421Z,28.13
2023-05-05T05:23:46.386Z,25.70
2023-05-05T05:26:13.482Z,25.65
2023-05-05T05:28:41.660Z,23.65
2023-05-05T05:31:08.619Z,24.95
2023-05-05T05:33:35.598Z,19.90
2023-05-05T05:36:02.626Z,23.60
2023-05-05T05:38:29.563Z,22.30
2023-05-05T05:40:56.474Z,26.60
2023-05-05T05:43:23.427Z,24.52
2023-05-05T05:45:50.564Z,19.60
2023-05-05T05:48:17.523Z,15.98
2023-05-05T05:50:44.476Z,16.48
2023-05-05T05:53:11.448Z,16.35
2023-05-05T05:55:38.380Z,20.00
2023-05-05T05:58:05.444Z,16.05
2023-05-05T06:00:32.547Z,13.77
2023-05-05T06:02:59.579Z,15.55
2023-05-05T06:05:27.033Z,20.15
2023-05-05T06:07:54.027Z,16.55
2023-05-05T06:12:52.515Z,19.15
2023-05-05T06:15:19.567Z,15.80
2023-05-05T06:17:46.640Z,15.80
2023-05-05T06:20:13.976Z,13.63
2023-05-05T06:22:41.181Z,15.05
2023-05-05T06:25:08.664Z,16.13
2023-05-05T06:27:35.657Z,18.88
2023-05-05T06:30:02.708Z,12.48
2023-05-05T06:32:29.635Z,16.63
2023-05-05T06:34:56.559Z,11.75
2023-05-05T06:37:23.619Z,12.57
2023-05-05T06:39:50.782Z,15.52
2023-05-05T06:42:17.703Z,10.65
2023-05-05T06:44:44.936Z,14.25
2023-05-05T06:47:11.886Z,16.75
2023-05-05T06:49:38.948Z,13.30
2023-05-05T06:52:08.308Z,12.85
2023-05-05T06:54:35.394Z,16.70
2023-05-05T06:57:02.602Z,14.25
2023-05-05T06:59:29.612Z,13.00
2023-05-05T07:01:56.720Z,10.32
2023-05-05T07:04:23.749Z,14.98
2023-05-05T07:06:50.793Z,12.30
2023-05-05T07:09:18.684Z,16.83
2023-05-05T07:11:46.425Z,9.48
2023-05-05T07:14:13.426Z,11.85
2023-05-05T07:16:40.615Z,13.57
2023-05-05T07:19:07.644Z,15.10
2023-05-05T07:21:35.067Z,12.32
2023-05-05T07:24:03.792Z,14.85
2023-05-05T07:26:30.984Z,21.42
2023-05-05T07:28:59.090Z,19.95
2023-05-05T07:31:26.675Z,21.10
2023-05-05T07:33:53.941Z,24.70
2023-05-05T07:36:21.024Z,16.40
2023-05-05T07:38:48.667Z,19.48
2023-05-05T07:41:15.999Z,27.58
2023-05-05T07:43:44.641Z,19.17
2023-05-05T07:46:12.327Z,23.23
2023-05-05T07:48:41.517Z,23.95
2023-05-05T07:51:09.823Z,22.73
2023-05-05T07:53:37.213Z,17.58
2023-05-05T07:56:04.378Z,18.02
2023-05-05T07:58:31.373Z,15.75
2023-05-05T08:00:58.387Z,20.92
2023-05-05T08:03:25.654Z,21.05
2023-05-05T08:05:55.484Z,16.13
2023-05-05T08:08:26.952Z,18.85
2023-05-05T08:10:54.557Z,22.83
2023-05-05T08:13:21.627Z,23.05
2023-05-05T08:15:48.656Z,25.20
2023-05-05T08:18:15.666Z,20.35
2023-05-05T08:20:42.735Z,20.95
2023-05-05T08:23:09.667Z,21.98
2023-05-05T08:25:36.657Z,24.38
2023-05-05T08:28:03.795Z,25.58
2023-05-05T08:30:30.828Z,23.73
2023-05-05T08:32:58.786Z,22.20
2023-05-05T08:35:25.749Z,22.30
2023-05-05T08:37:52.795Z,24.05
2023-05-05T08:40:25.087Z,28.52
2023-05-05T08:42:52.098Z,25.73
2023-05-05T08:45:19.014Z,25.50
2023-05-05T08:47:46.333Z,20.50
2023-05-05T08:50:14.117Z,21.42
2023-05-05T08:52:47.245Z,25.92
2023-05-05T08:55:26.438Z,26.13
2023-05-05T08:57:57.379Z,25.17
2023-05-05T09:00:27.259Z,22.40
2023-05-05T09:02:58.237Z,20.65
2023-05-05T09:05:26.569Z,21.70
2023-05-05T09:07:53.857Z,22.85
2023-05-05T09:10:20.987Z,21.55
2023-05-05T09:12:50.434Z,18.35
2023-05-05T09:15:17.559Z,19.70
2023-05-05T09:17:45.551Z,14.57
2023-05-05T09:20:14.824Z,15.40
2023-05-05T09:22:47.321Z,18.98
2023-05-05T09:25:18.495Z,26.25
2023-05-05T09:27:48.239Z,16.90
2023-05-05T09:30:18.944Z,15.65
2023-05-05T09:32:55.592Z,15.65
2023-05-05T09:35:23.665Z,19.50
2023-05-05T09:37:50.763Z,17.88
2023-05-05T09:40:20.012Z,17.88
2023-05-05T09:42:47.705Z,16.95
2023-05-05T09:45:17.682Z,14.02
2023-05-05T09:47:48.726Z,17.42
2023-05-05T09:50:18.820Z,14.80
2023-05-05T09:53:03.350Z,12.95
2023-05-05T09:55:33.382Z,12.90
2023-05-05T09:58:23.846Z,18.15
2023-05-05T10:00:51.248Z,15.77
2023-05-05T10:03:18.959Z,18.33
2023-05-05T10:05:53.210Z,19.05
2023-05-05T10:08:32.332Z,18.65
2023-05-05T10:11:05.269Z,16.60
2023-05-05T10:13:37.158Z,17.38
2023-05-05T10:16:05.270Z,13.07
2023-05-05T10:18:32.813Z,14.40
2023-05-05T10:21:04.409Z,14.85
2023-05-05T10:23:48.864Z,16.58
2023-05-05T10:26:20.078Z,14.43
2023-05-05T10:28:57.066Z,11.40
2023-05-05T10:31:36.668Z,12.30
2023-05-05T10:34:10.960Z,15.60
2023-05-05T10:36:39.301Z,14.75
2023-05-05T10:39:10.912Z,16.95
2023-05-05T10:41:38.395Z,13.38
2023-05-05T10:44:06.209Z,14.93
2023-05-05T10:46:33.362Z,15.18
2023-05-05T10:49:13.079Z,16.70
2023-05-05T10:51:52.174Z,13.48
2023-05-05T10:54:45.070Z,16.60
2023-05-05T10:57:13.517Z,14.23
2023-05-05T10:59:42.322Z,12.55
2023-05-05T11:02:40.197Z,13.65
2023-05-05T11:05:13.297Z,10.65
2023-05-05T11:07:42.054Z,7.55
2023-05-05T11:10:11.469Z,10.07
2023-05-05T11:12:59.388Z,5.90
2023-05-05T11:15:29.295Z,11.05
2023-05-05T11:18:02.626Z,9.98
2023-05-05T11:20:40.653Z,11.25
2023-05-05T11:23:07.776Z,7.28
2023-05-05T11:25:38.914Z,11.77
2023-05-05T11:28:11.542Z,9.82
2023-05-05T11:30:57.497Z,9.13
2023-05-05T11:33:32.511Z,9.43
2023-05-05T11:36:09.273Z,7.53
2023-05-05T11:39:08.809Z,9.80
2023-05-05T11:42:25.074Z,5.97
2023-05-05T11:44:52.717Z,9.18
2023-05-05T11:47:19.584Z,8.35
2023-05-05T11:49:46.740Z,8.00
2023-05-05T11:52:15.076Z,7.47
2023-05-05T11:54:48.983Z,7.35
2023-05-05T11:57:20.958Z,6.88
2023-05-05T12:00:01.517Z,10.95
2023-05-05T12:02:30.142Z,5.47
2023-05-05T12:04:59.094Z,8.77
2023-05-05T12:07:31.600Z,12.98
2023-05-05T12:09:58.706Z,12.00
2023-05-05T12:12:36.258Z,5.45
2023-05-05T12:15:04.073Z,7.97
2023-05-05T12:17:58.579Z,6.60
2023-05-05T12:20:32.564Z,7.47
2023-05-05T12:23:01.836Z,6.60
2023-05-05T12:25:36.767Z,8.70
2023-05-05T12:28:08.444Z,7.18
2023-05-05T12:30:36.010Z,5.97
2023-05-05T12:33:08.157Z,5.55
2023-05-05T12:35:35.853Z,4.80
2023-05-05T12:38:03.463Z,6.85
2023-05-05T12:40:50.015Z,5.30
2023-05-05T12:43:30.604Z,3.72
2023-05-05T12:46:11.995Z,5.70
2023-05-05T12:48:44.968Z,5.78
2023-05-05T12:51:19.752Z,6.13
2023-05-05T12:53:48.796Z,4.40
2023-05-05T12:56:36.998Z,3.58
2023-05-05T12:59:09.220Z,4.10
2023-05-05T13:01:48.126Z,3.47
2023-05-05T13:04:15.434Z,3.67
2023-05-05T13:06:48.172Z,4.60
2023-05-05T13:09:28.285Z,3.42
2023-05-05T13:11:55.403Z,2.22
2023-05-05T13:14:23.284Z,4.60
2023-05-05T13:16:50.569Z,4.60
2023-05-05T13:19:17.669Z,4.10
2023-05-05T13:21:44.606Z,6.15
2023-05-05T13:24:22.979Z,4.57
2023-05-05T13:26:54.102Z,3.55
2023-05-05T13:29:21.053Z,3.70
2023-05-05T13:31:48.113Z,3.58
2023-05-05T13:34:15.120Z,5.68
2023-05-05T13:36:42.068Z,3.38
2023-05-05T13:39:09.106Z,3.40
2023-05-05T13:41:36.249Z,4.15
2023-05-05T13:44:03.265Z,3.55
2023-05-05T13:46:30.738Z,3.50
2023-05-05T13:48:57.810Z,3.70
2023-05-05T13:51:24.765Z,7.43
2023-05-05T13:53:52.608Z,4.95
2023-05-05T13:56:19.855Z,6.45
2023-05-05T13:58:46.825Z,3.67
2023-05-05T14:01:13.879Z,3.15
2023-05-05T14:03:40.895Z,2.80
2023-05-05T14:06:09.305Z,3.58
2023-05-05T14:08:36.517Z,5.43
2023-05-05T14:11:03.774Z,4.65
2023-05-05T14:13:31.250Z,5.43
2023-05-05T14:15:58.465Z,2.60
2023-05-05T14:18:28.393Z,4.88
2023-05-05T14:20:55.386Z,5.40
2023-05-05T14:23:22.327Z,4.88
2023-05-05T14:25:49.443Z,4.93
2023-05-05T14:28:16.371Z,3.50
2023-05-05T14:30:43.344Z,7.13
2023-05-05T14:33:10.406Z,6.88
2023-05-05T14:35:37.334Z,4.65
2023-05-05T14:38:04.314Z,4.38
2023-05-05T14:40:31.422Z,4.82
2023-05-05T14:42:58.407Z,4.40
2023-05-05T14:45:26.367Z,5.28
2023-05-05T14:47:54.591Z,4.00
2023-05-05T14:50:21.624Z,5.32
2023-05-05T14:52:48.625Z,4.93
2023-05-05T14:55:15.624Z,6.10
2023-05-05T14:57:42.593Z,6.13
2023-05-05T15:00:11.043Z,5.68
2023-05-05T15:02:38.028Z,7.45
2023-05-05T15:05:05.847Z,6.20
2023-05-05T15:07:32.910Z,7.05
2023-05-05T15:09:59.885Z,5.60
2023-05-05T15:12:26.854Z,3.97
2023-05-05T15:14:55.346Z,3.47
2023-05-05T15:17:22.427Z,2.67
2023-05-05T15:19:49.514Z,4.53
2023-05-05T15:22:16.551Z,4.32
2023-05-05T15:24:43.464Z,5.75
2023-05-05T15:27:10.500Z,3.85
2023-05-05T15:29:37.463Z,4.25
2023-05-05T15:32:04.704Z,6.70
2023-05-05T15:34:31.816Z,3.22
2023-05-05T15:36:58.722Z,4.53
2023-05-05T15:39:25.827Z,4.13
2023-05-05T15:41:53.025Z,6.97
2023-05-05T15:44:19.934Z,6.15
2023-05-05T15:46:49.740Z,4.90
2023-05-05T15:49:17.350Z,4.13
2023-05-05T15:51:44.294Z,6.53
2023-05-05T15:54:11.297Z,3.90
2023-05-05T15:56:38.280Z,1.77
2023-05-05T15:59:05.392Z,1.27
2023-05-05T16:01:33.678Z,2.05
2023-05-05T16:04:01.287Z,2.50
2023-05-05T16:06:28.605Z,3.40
2023-05-05T16:08:58.494Z,2.30
2023-05-05T16:11:26.717Z,1.67
2023-05-05T16:13:54.173Z,3.28
2023-05-05T16:16:21.737Z,3.58
2023-05-05T16:18:48.765Z,4.18
2023-05-05T16:21:15.824Z,3.67
2023-05-05T16:23:43.516Z,2.20
2023-05-05T16:26:10.450Z,4.90
2023-05-05T16:28:37.730Z,1.90
2023-05-05T16:31:04.901Z,3.40
2023-05-05T16:33:31.979Z,3.65
2023-05-05T16:35:58.885Z,4.40
2023-05-05T16:38:25.918Z,2.42
2023-05-05T16:40:52.935Z,4.75
2023-05-05T16:43:19.927Z,3.83
2023-05-05T16:45:46.860Z,1.23
2023-05-05T16:48:14.731Z,1.55
2023-05-05T16:50:41.800Z,3.30
2023-05-05T16:53:10.039Z,1.77
2023-05-05T16:55:40.111Z,4.68
2023-05-05T16:58:07.111Z,3.28
2023-05-05T17:00:34.057Z,2.85
2023-05-05T17:03:01.228Z,3.75
2023-05-05T17:05:28.282Z,2.72
2023-05-05T17:07:55.249Z,4.47
2023-05-05T17:10:22.339Z,2.85
2023-05-05T17:12:49.357Z,5.53
2023-05-05T17:15:16.672Z,3.15
2023-05-05T17:17:43.690Z,2.50
2023-05-05T17:20:12.083Z,3.85
2023-05-05T17:22:39.119Z,3.47
2023-05-05T17:25:07.142Z,6.10
2023-05-05T17:27:34.249Z,2.00
2023-05-05T17:30:01.213Z,2.63
2023-05-05T17:32:28.234Z,5.70
2023-05-05T17:34:56.436Z,5.07
2023-05-05T17:37:23.485Z,5.03
2023-05-05T17:39:50.513Z,2.45
2023-05-05T17:42:22.722Z,5.07
2023-05-05T17:44:53.515Z,2.90
2023-05-05T17:47:22.420Z,5.20
2023-05-05T17:49:49.816Z,2.95
2023-05-05T17:52:16.762Z,2.60
2023-05-05T17:54:43.790Z,2.88
2023-05-05T17:57:10.781Z,2.70
2023-05-05T17:59:37.711Z,5.68
2023-05-05T18:02:05.116Z,6.50
2023-05-05T18:04:32.816Z,5.32
2023-05-05T18:06:59.980Z,4.68
2023-05-05T18:09:26.989Z,5.35
2023-05-05T18:11:55.500Z,3.53
2023-05-05T18:14:23.784Z,2.88
2023-05-05T18:16:53.999Z,2.17
2023-05-05T18:19:23.113Z,3.53
2023-05-05T18:21:53.176Z,2.92
2023-05-05T18:24:20.735Z,4.05
2023-05-05T18:26:50.953Z,4.10
2023-05-05T18:29:22.037Z,6.82
2023-05-05T18:31:52.830Z,4.95
2023-05-05T18:34:20.905Z,3.92
2023-05-05T18:36:54.195Z,2.95
2023-05-05T18:39:21.350Z,2.25
2023-05-05T18:41:48.330Z,2.85
2023-05-05T18:44:16.496Z,4.68
2023-05-05T18:46:43.502Z,2.20
2023-05-05T18:49:10.494Z,5.95
2023-05-05T18:51:37.454Z,2.75
2023-05-05T18:54:04.534Z,4.80
2023-05-05T18:56:31.481Z,2.38
2023-05-05T18:58:58.557Z,4.90
2023-05-05T19:01:25.864Z,2.75
2023-05-05T19:03:53.038Z,3.17
2023-05-05T19:06:20.114Z,3.38
2023-05-05T19:08:47.167Z,6.10
2023-05-05T19:11:15.159Z,5.78
2023-05-05T19:13:42.605Z,4.93
2023-05-05T19:16:11.356Z,4.25
2023-05-05T19:18:38.928Z,5.13
2023-05-05T19:21:06.288Z,5.22
2023-05-05T19:23:33.565Z,4.60
2023-05-05T19:26:00.950Z,4.55
2023-05-05T19:28:27.913Z,4.03
2023-05-05T19:30:54.853Z,2.70
2023-05-05T19:33:22.325Z,5.50
2023-05-05T19:35:49.747Z,4.13
2023-05-05T19:38:16.840Z,2.45
2023-05-05T19:40:43.874Z,2.78
2023-05-05T19:43:10.835Z,4.22
2023-05-05T19:45:38.032Z,8.32
2023-05-05T19:48:05.590Z,3.88
2023-05-05T19:50:32.650Z,6.40
2023-05-05T19:52:59.628Z,7.32
2023-05-05T19:55:26.841Z,4.97
2023-05-05T19:57:53.942Z,5.30
2023-05-05T20:00:21.038Z,7.15
2023-05-05T20:02:49.128Z,6.65
2023-05-05T20:05:17.624Z,5.72
2023-05-05T20:07:46.419Z,6.78
2023-05-05T20:10:13.805Z,2.95
2023-05-05T20:12:47.752Z,4.07
2023-05-05T20:15:19.551Z,5.18
2023-05-05T20:17:47.779Z,4.93
2023-05-05T20:20:21.866Z,5.32
2023-05-05T20:22:49.655Z,5.18
2023-05-05T20:25:16.905Z,4.78
2023-05-05T20:27:45.296Z,8.05
2023-05-05T20:30:13.128Z,8.82
2023-05-05T20:32:40.821Z,6.28
2023-05-05T20:35:09.060Z,7.85
2023-05-05T20:37:36.121Z,6.57
2023-05-05T20:40:03.843Z,5.03
2023-05-05T20:42:30.934Z,4.55
2023-05-05T20:44:58.031Z,4.40
2023-05-05T20:47:25.106Z,4.03
2023-05-05T20:49:52.498Z,6.80
2023-05-05T20:52:19.744Z,5.88
2023-05-05T20:54:46.735Z,4.85
2023-05-05T20:57:13.704Z,5.95
2023-05-05T20:59:40.676Z,4.18
2023-05-05T21:02:07.880Z,5.50
2023-05-05T21:04:34.872Z,4.60
2023-05-05T21:07:02.170Z,5.60
2023-05-05T21:09:29.318Z,5.90
2023-05-05T21:11:56.307Z,3.95
2023-05-05T21:14:23.742Z,6.95
2023-05-05T21:16:50.904Z,5.63
2023-05-05T21:19:17.877Z,4.70
2023-05-05T21:21:44.832Z,6.43
2023-05-05T21:24:13.053Z,5.25
2023-05-05T21:26:44.335Z,4.10
2023-05-05T21:29:12.057Z,4.53
2023-05-05T21:31:39.065Z,5.10
2023-05-05T21:34:06.005Z,6.28
2023-05-05T21:36:33.904Z,5.25
2023-05-05T21:39:01.162Z,4.25
2023-05-05T21:41:28.310Z,8.80
2023-05-05T21:43:55.692Z,6.63
2023-05-05T21:46:22.829Z,5.40
2023-05-05T21:48:49.913Z,4.88
2023-05-05T21:51:17.400Z,4.57
2023-05-05T21:53:44.426Z,7.90
2023-05-05T21:56:11.410Z,5.40
2023-05-05T21:58:38.422Z,5.50
2023-05-05T22:01:05.536Z,5.50
2023-05-05T22:03:35.046Z,7.15
2023-05-05T22:06:02.985Z,5.28
2023-05-05T22:08:29.921Z,9.52
2023-05-05T22:10:56.858Z,7.28
2023-05-05T22:13:23.969Z,5.82
2023-05-05T22:15:50.969Z,3.83
2023-05-05T22:18:17.892Z,3.60
2023-05-05T22:20:44.997Z,6.63
2023-05-05T22:23:11.954Z,6.90
2023-05-05T22:25:38.867Z,5.43
2023-05-05T22:28:05.929Z,6.40
2023-05-05T22:30:33.115Z,8.10
2023-05-05T22:33:00.167Z,5.85
2023-05-05T22:35:27.458Z,4.20
2023-05-05T22:37:54.438Z,4.07
2023-05-05T22:40:21.429Z,3.53
2023-05-05T22:42:48.425Z,4.70
2023-05-05T22:45:15.740Z,4.43
2023-05-05T22:47:42.750Z,5.40
2023-05-05T22:50:10.400Z,5.10
2023-05-05T22:52:37.329Z,8.47
2023-05-05T22:55:04.780Z,11.37
2023-05-05T22:57:31.839Z,7.03
2023-05-05T22:59:58.745Z,10.97
2023-05-05T23:02:26.713Z,6.87
2023-05-05T23:04:53.928Z,11.03
2023-05-05T23:07:21.009Z,11.70
2023-05-05T23:09:48.348Z,5.40
2023-05-05T23:12:15.361Z,6.93
2023-05-05T23:14:42.369Z,6.37
2023-05-05T23:17:10.249Z,7.57
2023-05-05T23:19:37.510Z,6.20
2023-05-05T23:22:04.811Z,9.40
2023-05-05T23:24:31.829Z,6.10
2023-05-05T23:27:03.526Z,5.30
2023-05-05T23:29:30.767Z,9.70
2023-05-05T23:31:58.254Z,6.13
2023-05-05T23:34:26.778Z,7.07
2023-05-05T23:36:53.698Z,10.60
2023-05-05T23:39:20.654Z,6.23
2023-05-05T23:41:47.725Z,5.23
2023-05-05T23:44:14.739Z,6.93
2023-05-05T23:46:41.771Z,4.83
2023-05-05T23:49:08.853Z,6.53
2023-05-05T23:51:36.415Z,7.07
2023-05-05T23:54:03.320Z,7.37
2023-05-05T23:56:30.514Z,5.50
2023-05-05T23:58:57.504Z,7.27
